Latest METARs, TAFs and NOTAMs for SEGU


---------------------------------------------------------------------------
	(OBSERVATIONS)
SEGU 240200Z 22013KT 9999 FEW030 SCT100 24/20 Q1011 NOSIG RMK
    A2985=
SEGU 240100Z 21011KT 9999 FEW026 BKN100 25/20 Q1010 NOSIG RMK
    A2983=
SEGU 240000Z 22011KT 9999 FEW026 BKN100 26/21 Q1009 NOSIG RMK
    A2981=
---------------------------------------------------------------------------
	(TERMINAL AREA FORECAST)
SEGU 232240Z 2400/2424 22012KT CAVOK
    FM240700 22007KT 9999 BKN020 BKN080
    FM241300 19005KT 9999 SCT026 SCT100 TX30/2420Z TN22/2410Z=
---------------------------------------------------------------------------
	(NOTAMS)


SEGU A0055/09 APN NORTE CLSD POR INCIDENTE DE ACFT 27 JAN 05:30
    UNTIL 27 JAN 18:00 ESTIMATED

SEGU A0422/17 EN FRASEOLOGIA: REMANENTE DE PISTA ES: MIL NOVECIENTOS
    TREINTA Y UN METROS IN PHRASEOLOGY: RWY DISTANCE REMAINING
    IS: ONE THOUSAND NINE HUNDRED THIRTY-ONE METERS. REF AIP
    PAG AD 2 SEGU 11.2, NUMERAL 3. 25 MAY 00:00 2017 UNTIL PERM.
    CREATED: 25 MAY 00:15 2017

SEGU A0659/17 MOV AREA WIP SUBJ TFC. CTN. 15 AUG 20:43 2017 UNTIL
    17 NOV 23:59 2017. CREATED: 15 AUG 20:58 2017

SEGU A0660/17 WIP IN GREEN AREAS MOV AREA, SUBJ TFC. CTN. 15
    AUG 20:51 2017 UNTIL 17 NOV 23:59 2017. CREATED: 15 AUG 20:59
    2017

SEGU A0688/17 ACFT STAND 18A CLSD DUE TO MAINT. CTN. 21 AUG 13:41
    2017 UNTIL 03 SEP 23:00 2017. CREATED: 21 AUG 13:40 2017

SEGU A1463/06 COMBUSTIBLE JET A-1 RESTRINGIDO 20 POR CIENTO 26
    DEC 20:45 2006 UNTIL 04 JAN 23:00 ESTIMATED

SEGU V0357/17 [US DOD PROCEDURAL NOTAM] INSTRUMENT APPROACH PROCEDURE
    NOT AUTHORIZED CSA FLIP VOL-2 DESCENT 2 VOR/DME GYV RWY 21.
    18 AUG 11:17 2017 UNTIL 13 OCT 23:59 2017. CREATED: 18 AUG
    11:17 2017

---------------------------------------------------------------------------